Time;durP1;ratioP1;P1;durP2;ratioP2;P2;SDS_P1;SDS_P2;PMS_P1;PMS_P2;Temp;Humidity;BMP_temperature;BMP_pressure;BME280_temperature;BME280_humidity;BME280_pressure;Samples;Min_cycle;Max_cycle;Signal;HPM_P1;HPM_P2
2023/06/15 04:02:08;;;;;;;3.30;1.20;;;17.40;1.00;;;;;;5282970;23;20865;-71
2023/06/15 04:04:36;;;;;;;0.60;0.10;;;17.30;1.00;;;;;;4935980;29;20451;-71
2023/06/15 04:07:04;;;;;;;0.70;0.40;;;17.20;1.00;;;;;;4935785;29;20438;-72
2023/06/15 04:09:33;;;;;;;0.60;0.20;;;17.20;1.00;;;;;;4935904;29;20507;-71
2023/06/15 04:12:01;;;;;;;0.60;0.20;;;;;;;;;;4935836;29;21069;-71
2023/06/15 04:14:30;;;;;;;0.60;0.10;;;17.20;1.00;;;;;;4936645;29;20840;-71
2023/06/15 04:16:58;;;;;;;0.93;0.60;;;17.20;1.00;;;;;;4939815;29;20536;-72
2023/06/15 04:19:27;;;;;;;0.60;0.20;;;17.30;1.00;;;;;;4940832;29;20509;-71
2023/06/15 04:21:56;;;;;;;0.60;0.20;;;17.30;1.00;;;;;;4939627;29;20988;-71
2023/06/15 04:24:24;;;;;;;0.60;0.20;;;17.30;1.00;;;;;;4940655;29;20447;-72
2023/06/15 04:26:51;;;;;;;0.60;0.10;;;17.30;1.00;;;;;;4937929;29;20430;-72
2023/06/15 04:29:22;;;;;;;2.50;0.93;;;17.30;1.00;;;;;;4935923;29;20800;-72
2023/06/15 04:31:54;;;;;;;0.60;0.10;;;17.30;1.00;;;;;;4935862;29;20545;-72
2023/06/15 04:34:24;;;;;;;0.60;0.20;;;17.30;1.00;;;;;;4935700;29;20479;-72
2023/06/15 04:36:53;;;;;;;0.60;0.17;;;17.30;1.00;;;;;;4936095;29;20489;-72
2023/06/15 04:39:25;;;;;;;0.60;0.10;;;17.30;1.00;;;;;;4936529;29;20831;-72
2023/06/15 04:41:57;;;;;;;0.60;0.20;;;17.40;1.00;;;;;;4936006;29;20474;-72
2023/06/15 04:44:25;;;;;;;0.60;0.10;;;17.50;1.00;;;;;;4935674;29;20825;-72
2023/06/15 04:46:54;;;;;;;0.60;0.20;;;17.50;1.00;;;;;;4937195;29;20926;-72
2023/06/15 04:49:22;;;;;;;0.60;0.20;;;17.40;1.00;;;;;;4937374;29;20957;-72
2023/06/15 04:51:52;;;;;;;0.60;0.10;;;17.50;1.00;;;;;;4937376;29;20506;-71
2023/06/15 04:54:20;;;;;;;1.90;1.80;;;17.50;1.00;;;;;;4937057;29;20489;-71
2023/06/15 04:56:48;;;;;;;0.60;0.10;;;17.60;1.00;;;;;;4936253;29;20490;-72
2023/06/15 04:59:16;;;;;;;0.60;0.10;;;17.70;1.00;;;;;;4935482;29;20455;-72
2023/06/15 05:01:44;;;;;;;1.40;0.83;;;17.70;1.00;;;;;;4935101;29;20903;-72
2023/06/15 05:04:11;;;;;;;0.60;0.20;;;17.60;1.00;;;;;;4935509;29;20482;-72
2023/06/15 05:06:39;;;;;;;1.43;0.50;;;17.60;1.00;;;;;;4935466;29;20451;-72
2023/06/15 05:09:08;;;;;;;0.60;0.10;;;17.60;1.00;;;;;;4935549;29;20470;-72
2023/06/15 05:11:36;;;;;;;0.60;0.30;;;17.60;1.00;;;;;;4935112;29;20502;-72
2023/06/15 05:14:05;;;;;;;0.60;0.10;;;17.60;1.00;;;;;;4934998;29;20779;-72
2023/06/15 05:16:33;;;;;;;0.60;0.10;;;17.60;1.00;;;;;;4927940;29;20572;-72
2023/06/15 05:19:01;;;;;;;0.60;0.10;;;17.70;1.00;;;;;;4916280;29;20478;-72
2023/06/15 05:21:28;;;;;;;0.60;0.30;;;17.70;1.00;;;;;;4916029;29;20514;-69
2023/06/15 05:23:56;;;;;;;0.60;0.10;;;17.70;1.00;;;;;;4916068;29;20451;-69
2023/06/15 05:26:26;;;;;;;0.60;0.10;;;17.80;1.00;;;;;;4915900;29;20530;-69
2023/06/15 05:28:57;;;;;;;0.67;0.30;;;17.90;1.00;;;;;;4915456;29;20971;-69
2023/06/15 05:31:25;;;;;;;0.83;0.67;;;17.80;1.00;;;;;;4915770;29;20529;-70
2023/06/15 05:33:53;;;;;;;0.60;0.20;;;17.80;1.00;;;;;;4916471;29;20957;-69
2023/06/15 05:36:21;;;;;;;0.60;0.10;;;17.80;1.00;;;;;;4916136;29;20540;-69
2023/06/15 05:39:09;;;;;;;0.60;0.30;;;17.90;1.00;;;;;;4919931;29;20451;-69
2023/06/15 05:41:39;;;;;;;0.73;0.30;;;18.10;1.00;;;;;;4919272;29;21045;-69
2023/06/15 05:44:10;;;;;;;6.23;1.07;;;18.10;1.00;;;;;;4919521;29;20450;-70
2023/06/15 05:46:38;;;;;;;0.60;0.20;;;18.10;1.00;;;;;;4930113;29;20455;-69
2023/06/15 05:49:06;;;;;;;0.60;0.23;;;18.10;1.00;;;;;;4939455;29;20553;-69
2023/06/15 05:51:34;;;;;;;0.60;0.30;;;18.10;1.00;;;;;;4938547;29;20467;-70
2023/06/15 05:54:02;;;;;;;0.60;0.10;;;18.10;1.00;;;;;;4938607;29;20544;-69
2023/06/15 05:56:31;;;;;;;0.60;0.10;;;18.20;1.00;;;;;;4940700;29;20520;-69
2023/06/15 05:59:00;;;;;;;0.93;0.60;;;18.20;1.00;;;;;;4951613;29;20448;-69
2023/06/15 06:01:28;;;;;;;0.60;0.20;;;18.30;1.00;;;;;;4953931;28;20699;-70
2023/06/15 06:03:56;;;;;;;0.60;0.10;;;18.30;1.00;;;;;;4957623;29;20553;-70
2023/06/15 06:06:23;;;;;;;1.47;1.37;;;18.50;1.00;;;;;;4952210;29;20455;-70
2023/06/15 06:08:51;;;;;;;1.23;0.40;;;18.60;1.00;;;;;;4938656;29;20465;-70
2023/06/15 06:11:19;;;;;;;0.60;0.20;;;18.70;1.00;;;;;;4932740;29;20471;-70
2023/06/15 06:13:47;;;;;;;0.80;0.60;;;18.70;1.00;;;;;;4921798;29;20582;-70
2023/06/15 06:16:17;;;;;;;0.80;0.50;;;18.80;1.00;;;;;;4937300;29;20483;-70
2023/06/15 06:18:45;;;;;;;0.60;0.10;;;18.80;1.00;;;;;;4937159;29;20447;-69
2023/06/15 06:21:13;;;;;;;11.23;4.63;;;18.90;1.00;;;;;;4936787;29;20526;-70
2023/06/15 06:23:41;;;;;;;0.60;0.10;;;19.00;1.00;;;;;;4936879;29;20538;-69
2023/06/15 06:26:09;;;;;;;0.60;0.10;;;19.10;1.00;;;;;;4937142;29;20451;-69
2023/06/15 06:28:37;;;;;;;0.70;0.33;;;19.10;1.00;;;;;;4937244;29;20510;-68
2023/06/15 06:31:05;;;;;;;0.60;0.10;;;19.20;1.00;;;;;;4936799;29;20835;-69
2023/06/15 06:33:37;;;;;;;0.60;0.20;;;19.30;1.00;;;;;;4936478;29;20461;-69
2023/06/15 06:36:08;;;;;;;0.60;0.20;;;19.40;1.00;;;;;;4937256;29;20518;-68
2023/06/15 06:38:36;;;;;;;0.63;0.27;;;19.40;1.00;;;;;;4936861;29;20452;-69
2023/06/15 06:41:24;;;;;;;0.60;0.20;;;19.50;1.00;;;;;;4937260;29;20518;-69
2023/06/15 06:43:52;;;;;;;0.60;0.10;;;19.60;1.00;;;;;;4936665;29;20452;-70
2023/06/15 06:46:44;;;;;;;0.60;0.10;;;;;;;;;;4938096;29;20530;-72
2023/06/15 06:49:13;;;;;;;0.60;0.20;;;19.80;1.00;;;;;;4937038;29;20460;-70
2023/06/15 06:51:41;;;;;;;0.60;0.10;;;19.90;1.00;;;;;;4936873;29;20471;-71
2023/06/15 06:54:09;;;;;;;0.60;0.20;;;20.00;1.00;;;;;;4940711;29;20452;-71
2023/06/15 06:56:36;;;;;;;0.60;0.20;;;19.90;1.00;;;;;;4941928;29;20611;-71
2023/06/15 06:59:04;;;;;;;0.63;0.27;;;20.00;1.00;;;;;;4941093;29;20550;-71
2023/06/15 07:01:33;;;;;;;0.60;0.20;;;20.00;1.00;;;;;;4938105;29;20567;-70
2023/06/15 07:04:00;;;;;;;0.70;0.30;;;20.00;1.00;;;;;;4936893;29;20808;-69
2023/06/15 07:06:30;;;;;;;0.70;0.30;;;;;;;;;;4937336;29;20527;-71
2023/06/15 07:08:58;;;;;;;0.60;0.10;;;;;;;;;;4936845;29;20868;-70
2023/06/15 07:11:27;;;;;;;0.60;0.20;;;20.00;1.00;;;;;;4948762;28;20534;-70
2023/06/15 07:13:55;;;;;;;1.00;0.63;;;;;;;;;;4943485;29;20523;-70
2023/06/15 07:16:23;;;;;;;0.60;0.13;;;20.00;1.00;;;;;;4935840;29;20452;-70
2023/06/15 07:18:51;;;;;;;0.70;0.30;;;20.10;1.00;;;;;;4936302;29;20452;-69
2023/06/15 07:21:19;;;;;;;0.60;0.20;;;;;;;;;;4936422;29;20594;-69
2023/06/15 07:23:48;;;;;;;0.60;0.20;;;20.10;1.00;;;;;;4935412;29;20439;-70
2023/06/15 07:26:21;;;;;;;0.90;0.30;;;20.20;1.00;;;;;;4934154;29;20453;-75
2023/06/15 07:28:49;;;;;;;0.60;0.20;;;20.30;1.00;;;;;;4939667;29;20456;-74
2023/06/15 07:31:17;;;;;;;1.00;0.67;;;20.20;1.00;;;;;;4938380;29;20495;-75
2023/06/15 07:33:45;;;;;;;0.80;0.40;;;;;;;;;;4937924;29;20451;-74
2023/06/15 07:36:13;;;;;;;0.60;0.10;;;20.40;1.00;;;;;;4937802;29;20456;-74
2023/06/15 07:38:41;;;;;;;0.60;0.20;;;20.50;1.00;;;;;;4937341;29;20850;-75
2023/06/15 07:41:11;;;;;;;0.60;0.10;;;20.50;1.00;;;;;;4937660;29;20532;-76
2023/06/15 07:43:39;;;;;;;0.60;0.20;;;;;;;;;;4937286;29;20479;-75
2023/06/15 07:46:07;;;;;;;0.70;0.50;;;20.80;1.00;;;;;;4937171;29;20455;-74
2023/06/15 07:48:35;;;;;;;0.60;0.20;;;20.80;1.00;;;;;;4936784;29;20491;-74
2023/06/15 07:51:03;;;;;;;1.23;0.47;;;20.80;1.00;;;;;;4937079;29;20543;-75
2023/06/15 07:53:31;;;;;;;0.60;0.20;;;20.80;1.00;;;;;;4937523;29;20864;-76
2023/06/15 07:55:59;;;;;;;0.60;0.20;;;20.90;1.00;;;;;;4938637;29;20447;-75
2023/06/15 07:58:28;;;;;;;0.70;0.30;;;21.00;1.00;;;;;;4938180;29;20488;-75
2023/06/15 08:00:56;;;;;;;1.13;0.67;;;21.00;1.00;;;;;;4936649;29;20484;-75
2023/06/15 08:03:25;;;;;;;0.60;0.10;;;;;;;;;;4937186;29;20527;-76
2023/06/15 08:05:53;;;;;;;0.63;0.27;;;21.00;1.00;;;;;;4937392;29;20542;-76
2023/06/15 08:08:22;;;;;;;0.97;0.67;;;21.10;1.00;;;;;;4937616;29;20947;-75
2023/06/15 08:10:49;;;;;;;0.60;0.10;;;21.20;1.00;;;;;;4944897;28;21177;-76
2023/06/15 08:13:20;;;;;;;0.67;0.20;;;21.30;1.00;;;;;;4948005;29;20506;-77
2023/06/15 08:15:50;;;;;;;0.60;0.20;;;;;;;;;;4939190;29;20450;-76
2023/06/15 08:18:25;;;;;;;0.67;0.20;;;;;;;;;;4937346;29;20518;-77
2023/06/15 08:20:54;;;;;;;0.60;0.20;;;21.30;1.00;;;;;;4936435;29;20473;-76
2023/06/15 08:23:22;;;;;;;0.60;0.10;;;;;;;;;;4937198;29;20464;-76
2023/06/15 08:25:52;;;;;;;1.00;0.80;;;;;;;;;;4937123;29;20445;-76
2023/06/15 08:28:21;;;;;;;0.60;0.20;;;21.50;1.00;;;;;;4937728;29;20516;-76
2023/06/15 08:30:50;;;;;;;0.60;0.10;;;21.50;1.00;;;;;;4937209;29;20976;-76
2023/06/15 08:33:20;;;;;;;0.60;0.20;;;;;;;;;;4938077;29;20468;-76
2023/06/15 08:35:51;;;;;;;0.60;0.10;;;;;;;;;;4937603;29;20492;-76
2023/06/15 08:38:19;;;;;;;0.60;0.13;;;21.50;1.00;;;;;;4936425;29;20495;-77
2023/06/15 08:40:47;;;;;;;0.90;0.67;;;;;;;;;;4937276;29;20461;-74
2023/06/15 08:43:16;;;;;;;0.70;0.20;;;21.70;1.00;;;;;;4937557;29;20459;-76
2023/06/15 08:45:48;;;;;;;0.60;0.10;;;21.80;1.00;;;;;;4937531;29;21031;-75
2023/06/15 08:48:18;;;;;;;0.60;0.20;;;21.80;1.00;;;;;;4937541;29;20436;-74
2023/06/15 08:50:49;;;;;;;0.80;0.20;;;21.80;1.00;;;;;;4936698;29;20455;-73
2023/06/15 08:53:21;;;;;;;0.60;0.10;;;21.80;1.00;;;;;;4935651;29;21005;-75
2023/06/15 08:55:50;;;;;;;0.70;0.10;;;21.90;1.00;;;;;;4937239;29;20441;-74
2023/06/15 08:58:18;;;;;;;0.80;0.40;;;;;;;;;;4936653;29;20480;-74
2023/06/15 09:00:57;;;;;;;0.80;0.20;;;;;;;;;;4936738;29;20459;-74
2023/06/15 09:03:27;;;;;;;0.70;0.30;;;22.10;1.00;;;;;;4936801;29;20487;-74
2023/06/15 09:05:55;;;;;;;0.60;0.10;;;22.10;1.00;;;;;;4936222;29;20515;-74
2023/06/15 09:08:25;;;;;;;0.60;0.10;;;22.30;1.00;;;;;;4936164;29;20458;-74
2023/06/15 09:11:06;;;;;;;0.67;0.20;;;22.30;1.00;;;;;;4943516;28;20467;-75
2023/06/15 09:13:34;;;;;;;0.63;0.20;;;22.30;1.00;;;;;;4940772;29;20509;-76
2023/06/15 09:16:05;;;;;;;0.60;0.20;;;22.40;1.00;;;;;;4939154;29;20544;-76
2023/06/15 09:18:44;;;;;;;1.43;1.17;;;22.50;1.00;;;;;;4940259;29;20999;-76
2023/06/15 09:21:14;;;;;;;0.90;0.50;;;21.50;1.00;;;;;;4940025;29;20500;-75
2023/06/15 09:23:44;;;;;;;0.70;0.10;;;22.50;1.00;;;;;;4939763;29;20446;-75
2023/06/15 09:26:22;;;;;;;1.23;1.13;;;22.50;1.00;;;;;;4939163;29;20453;-76
2023/06/15 09:28:52;;;;;;;0.63;0.20;;;22.60;1.00;;;;;;4939531;29;20449;-76
2023/06/15 09:31:30;;;;;;;0.70;0.10;;;22.80;1.00;;;;;;4939632;29;20468;-77
2023/06/15 09:34:04;;;;;;;0.60;0.20;;;22.90;1.00;;;;;;4939841;29;20449;-76
2023/06/15 09:36:36;;;;;;;0.70;0.30;;;23.00;1.00;;;;;;4939782;29;20460;-76
2023/06/15 09:39:05;;;;;;;0.87;0.40;;;23.00;1.00;;;;;;4939269;29;20488;-77
2023/06/15 09:41:33;;;;;;;0.70;0.10;;;23.10;1.00;;;;;;4939380;29;20525;-77
2023/06/15 09:44:06;;;;;;;1.00;0.27;;;23.30;1.00;;;;;;4939549;29;20888;-76
2023/06/15 09:46:36;;;;;;;0.70;0.20;;;23.30;1.00;;;;;;4939890;29;20537;-75
2023/06/15 09:49:19;;;;;;;0.70;0.33;;;23.30;1.00;;;;;;4939767;29;20801;-75
2023/06/15 09:51:50;;;;;;;0.70;0.20;;;23.50;1.00;;;;;;4942004;29;20814;-75
2023/06/15 09:54:20;;;;;;;0.70;0.10;;;23.70;1.00;;;;;;4944549;29;20461;-76
2023/06/15 09:56:50;;;;;;;0.70;0.20;;;23.80;1.00;;;;;;4946375;29;20488;-77
2023/06/15 09:59:19;;;;;;;0.70;0.20;;;23.90;1.00;;;;;;4947077;29;20486;-77
2023/06/15 10:01:48;;;;;;;1.10;0.57;;;23.90;1.00;;;;;;4953053;29;20897;-76
2023/06/15 10:04:23;;;;;;;0.70;0.20;;;23.80;1.00;;;;;;4942988;29;20453;-75
2023/06/15 10:06:57;;;;;;;0.70;0.10;;;24.00;1.00;;;;;;4939741;29;20909;-75
2023/06/15 10:09:28;;;;;;;0.70;0.20;;;24.00;1.00;;;;;;4939586;29;20449;-75
2023/06/15 10:12:01;;;;;;;0.90;0.60;;;23.90;1.00;;;;;;4955252;28;20466;-74
2023/06/15 10:14:33;;;;;;;5.70;5.40;;;24.00;1.00;;;;;;4959161;29;20500;-75
2023/06/15 10:17:03;;;;;;;0.70;0.20;;;24.10;1.00;;;;;;4958638;29;20456;-75
2023/06/15 10:19:38;;;;;;;0.70;0.13;;;24.10;1.00;;;;;;4958523;29;20491;-75
2023/06/15 10:22:12;;;;;;;0.70;0.20;;;24.30;1.00;;;;;;4939076;29;20479;-75
2023/06/15 10:24:41;;;;;;;2.70;0.80;;;24.10;1.00;;;;;;4938646;29;20458;-74
2023/06/15 10:27:09;;;;;;;0.70;0.20;;;;;;;;;;4938227;29;20451;-74
2023/06/15 10:29:45;;;;;;;0.70;0.10;;;23.70;1.00;;;;;;4938885;29;20477;-73
2023/06/15 10:32:17;;;;;;;0.70;0.20;;;23.80;1.00;;;;;;4938362;29;20565;-74
2023/06/15 10:34:56;;;;;;;0.70;0.20;;;23.90;1.00;;;;;;4938388;29;20483;-74
2023/06/15 10:37:31;;;;;;;2.50;0.70;;;23.90;1.00;;;;;;4939587;29;20446;-74
2023/06/15 10:40:10;;;;;;;0.70;0.20;;;23.80;1.00;;;;;;4941452;29;21004;-75
2023/06/15 10:42:44;;;;;;;0.80;0.40;;;23.70;1.00;;;;;;4941102;28;20494;-75
2023/06/15 10:45:27;;;;;;;0.70;0.10;;;23.80;1.00;;;;;;4936360;29;20553;-75
2023/06/15 10:47:58;;;;;;;0.70;0.20;;;24.10;1.00;;;;;;4948611;29;20446;-75
2023/06/15 10:50:29;;;;;;;0.70;0.10;;;24.30;1.00;;;;;;4940775;29;20450;-75
2023/06/15 10:52:57;;;;;;;0.70;0.20;;;24.20;1.00;;;;;;4938476;29;20894;-75
2023/06/15 10:55:28;;;;;;;0.70;0.10;;;24.50;1.00;;;;;;4938486;29;20452;-73
2023/06/15 10:58:20;;;;;;;1.83;1.73;;;24.70;1.00;;;;;;4938346;29;20464;-75
2023/06/15 11:01:05;;;;;;;3.00;0.53;;;24.60;1.00;;;;;;4914717;29;20474;-74
2023/06/15 11:03:34;;;;;;;0.70;0.20;;;24.70;1.00;;;;;;4936992;29;20457;-75
2023/06/15 11:06:07;;;;;;;0.70;0.20;;;24.70;1.00;;;;;;4942547;29;20553;-76
2023/06/15 11:08:47;;;;;;;0.70;0.10;;;24.70;1.00;;;;;;4939231;29;20493;-76
2023/06/15 11:11:18;;;;;;;0.70;0.20;;;24.90;1.00;;;;;;4928628;29;20553;-75
2023/06/15 11:14:03;;;;;;;0.70;0.10;;;24.90;1.00;;;;;;4937994;29;20459;-75
2023/06/15 11:16:33;;;;;;;0.70;0.10;;;24.80;1.00;;;;;;4939037;29;20470;-76
2023/06/15 11:19:23;;;;;;;0.70;0.20;;;24.70;1.00;;;;;;4937117;29;20489;-76
2023/06/15 11:21:59;;;;;;;0.70;0.10;;;26.90;1.00;;;;;;4937327;29;20479;-75
2023/06/15 11:24:29;;;;;;;0.70;0.20;;;24.70;1.00;;;;;;4937191;29;20588;-75
2023/06/15 11:27:03;;;;;;;0.80;0.50;;;24.60;1.00;;;;;;4936002;29;20834;-75
2023/06/15 11:29:33;;;;;;;0.70;0.20;;;24.50;1.00;;;;;;4937014;29;20530;-75
2023/06/15 11:32:02;;;;;;;0.70;0.20;;;24.70;1.00;;;;;;4935153;29;20463;-75
2023/06/15 11:34:34;;;;;;;1.73;1.23;;;24.70;1.00;;;;;;4936796;29;20467;-77
2023/06/15 11:37:05;;;;;;;0.70;0.20;;;24.70;1.00;;;;;;4932633;29;20481;-76
2023/06/15 11:39:33;;;;;;;0.70;0.10;;;24.70;1.00;;;;;;4934473;29;20533;-75
2023/06/15 11:42:03;;;;;;;0.70;0.10;;;24.70;1.00;;;;;;4937194;29;20487;-76
2023/06/15 11:44:31;;;;;;;0.70;0.20;;;24.90;1.00;;;;;;4937297;29;20767;-75
2023/06/15 11:47:01;;;;;;;0.80;0.57;;;25.10;1.00;;;;;;4938454;29;20463;-75
2023/06/15 11:49:33;;;;;;;0.70;0.10;;;25.20;1.00;;;;;;4938149;29;20459;-75
2023/06/15 11:52:03;;;;;;;0.70;0.20;;;25.30;1.00;;;;;;4937672;29;20890;-75
2023/06/15 11:54:31;;;;;;;0.70;0.10;;;25.30;1.00;;;;;;4937446;29;20454;-75
2023/06/15 11:57:17;;;;;;;0.80;0.40;;;25.50;1.00;;;;;;4937347;29;20502;-75
2023/06/15 11:59:46;;;;;;;0.80;0.40;;;25.50;1.00;;;;;;4936796;29;20928;-76
2023/06/15 12:02:15;;;;;;;1.33;0.60;;;25.20;1.00;;;;;;4939647;29;20574;-74
2023/06/15 12:04:43;;;;;;;0.70;0.20;;;25.20;1.00;;;;;;4941407;29;20451;-74
2023/06/15 12:07:13;;;;;;;0.93;0.30;;;24.90;1.00;;;;;;4935770;29;20494;-75
2023/06/15 12:10:03;;;;;;;0.70;0.10;;;24.80;1.00;;;;;;4937523;29;20952;-75
2023/06/15 12:12:31;;;;;;;0.70;0.20;;;24.70;1.00;;;;;;4940382;29;20998;-75
2023/06/15 12:15:00;;;;;;;0.80;0.50;;;24.70;1.00;;;;;;4943851;29;20498;-75
2023/06/15 12:17:31;;;;;;;0.70;0.13;;;24.70;1.00;;;;;;4930348;29;20836;-75
2023/06/15 12:20:00;;;;;;;0.70;0.20;;;24.80;1.00;;;;;;4925060;29;20518;-75
2023/06/15 12:22:37;;;;;;;0.70;0.10;;;25.10;1.00;;;;;;4943335;29;20514;-74
2023/06/15 12:25:06;;;;;;;0.80;0.50;;;25.30;1.00;;;;;;4920724;29;20885;-75
2023/06/15 12:27:36;;;;;;;1.33;0.83;;;;;;;;;;4921106;29;20452;-74
2023/06/15 12:30:11;;;;;;;0.70;0.20;;;25.30;1.00;;;;;;4933565;29;20473;-76
2023/06/15 12:32:43;;;;;;;0.70;0.20;;;25.60;1.00;;;;;;4951389;29;20498;-75
2023/06/15 12:35:32;;;;;;;0.70;0.20;;;25.70;1.00;;;;;;4942560;29;20550;-75
2023/06/15 12:38:01;;;;;;;0.70;0.10;;;25.80;1.00;;;;;;4939006;29;20455;-75
2023/06/15 12:40:30;;;;;;;0.70;0.20;;;;;;;;;;4937252;29;20578;-75
2023/06/15 12:43:03;;;;;;;0.70;0.20;;;25.90;1.00;;;;;;4940078;29;20486;-76
2023/06/15 12:45:32;;;;;;;0.70;0.20;;;26.00;1.00;;;;;;4949461;28;20551;-74
2023/06/15 12:48:00;;;;;;;1.20;1.10;;;25.90;1.00;;;;;;4946461;29;20568;-74
2023/06/15 12:50:30;;;;;;;1.93;1.60;;;25.70;1.00;;;;;;4943572;29;20539;-74
2023/06/15 12:52:58;;;;;;;0.93;0.70;;;25.60;1.00;;;;;;4942308;29;20454;-75
2023/06/15 12:55:28;;;;;;;0.77;0.47;;;25.70;1.00;;;;;;4941976;29;20506;-74
2023/06/15 12:57:57;;;;;;;1.80;0.40;;;25.70;1.00;;;;;;4936626;29;20459;-74
2023/06/15 13:00:28;;;;;;;0.70;0.20;;;25.80;1.00;;;;;;4936402;29;20483;-76
2023/06/15 13:02:58;;;;;;;1.03;0.43;;;25.90;1.00;;;;;;4941857;29;20551;-75
2023/06/15 13:05:28;;;;;;;0.70;0.30;;;;;;;;;;4950745;29;20453;-75
2023/06/15 13:07:57;;;;;;;0.70;0.20;;;;;;;;;;4952390;29;20447;-74
2023/06/15 13:10:25;;;;;;;0.80;0.30;;;26.10;1.00;;;;;;4940756;29;20487;-74
2023/06/15 13:12:55;;;;;;;0.70;0.30;;;26.20;1.00;;;;;;4944780;29;20484;-74
2023/06/15 13:15:23;;;;;;;0.70;0.10;;;;;;;;;;4947326;29;20470;-74
2023/06/15 13:17:51;;;;;;;0.90;0.33;;;26.30;1.00;;;;;;4947717;29;20483;-74
2023/06/15 13:20:20;;;;;;;0.70;0.10;;;;;;;;;;4948176;29;20582;-76
2023/06/15 13:22:50;;;;;;;1.67;1.07;;;26.20;1.00;;;;;;4953686;29;20474;-75
2023/06/15 13:25:19;;;;;;;0.70;0.30;;;26.20;1.00;;;;;;4939452;29;20662;-75
2023/06/15 13:27:47;;;;;;;0.70;0.20;;;26.10;1.00;;;;;;4937385;29;20558;-75
2023/06/15 13:30:17;;;;;;;0.70;0.10;;;26.10;1.00;;;;;;4944430;29;20450;-75
2023/06/15 13:32:46;;;;;;;0.70;0.20;;;26.20;1.00;;;;;;4944907;29;20546;-75
2023/06/15 13:35:15;;;;;;;0.70;0.20;;;;;;;;;;4948565;29;20940;-74
2023/06/15 13:37:45;;;;;;;0.70;0.10;;;26.30;1.00;;;;;;4920351;29;20486;-75
2023/06/15 13:40:13;;;;;;;0.70;0.10;;;26.30;1.00;;;;;;4945423;29;20485;-74
2023/06/15 13:42:42;;;;;;;0.70;0.10;;;26.30;1.00;;;;;;4937109;29;20475;-74
2023/06/15 13:45:12;;;;;;;0.70;0.20;;;26.30;1.00;;;;;;4936380;29;20463;-75
2023/06/15 13:47:42;;;;;;;0.70;0.20;;;26.20;1.00;;;;;;4951555;29;20502;-73
2023/06/15 13:50:13;;;;;;;3.23;2.90;;;26.20;1.00;;;;;;4954846;29;20481;-74
2023/06/15 13:52:42;;;;;;;0.70;0.20;;;26.20;1.00;;;;;;4942442;28;20530;-75
2023/06/15 13:55:11;;;;;;;0.70;0.20;;;26.40;1.00;;;;;;4949398;29;20474;-76
2023/06/15 13:57:40;;;;;;;0.70;0.30;;;26.40;1.00;;;;;;4950305;29;20447;-74
2023/06/15 14:00:09;;;;;;;0.80;0.50;;;26.40;1.00;;;;;;4960215;29;20482;-74
2023/06/15 14:02:37;;;;;;;0.70;0.20;;;26.50;1.00;;;;;;4948266;28;20517;-74
2023/06/15 14:05:07;;;;;;;0.70;0.20;;;26.30;1.00;;;;;;4939354;29;20966;-74
2023/06/15 14:07:37;;;;;;;1.80;1.20;;;;;;;;;;4947276;29;20947;-75
2023/06/15 14:10:06;;;;;;;0.70;0.20;;;26.20;1.00;;;;;;4941993;29;20455;-74
2023/06/15 14:12:34;;;;;;;0.70;0.20;;;26.40;1.00;;;;;;4958489;28;20466;-74
2023/06/15 14:15:04;;;;;;;0.70;0.20;;;;;;;;;;4958928;29;20446;-75
2023/06/15 14:17:32;;;;;;;0.70;0.20;;;26.60;1.00;;;;;;4941998;29;20463;-75
2023/06/15 14:20:00;;;;;;;1.20;0.40;;;26.70;1.00;;;;;;4938704;29;20471;-76
2023/06/15 14:22:30;;;;;;;0.70;0.13;;;26.70;1.00;;;;;;4944882;29;20466;-74
2023/06/15 14:24:58;;;;;;;0.70;0.20;;;26.80;1.00;;;;;;4948759;29;21008;-74
2023/06/15 14:27:26;;;;;;;0.70;0.10;;;26.90;1.00;;;;;;4957493;29;20545;-75
2023/06/15 14:29:54;;;;;;;0.70;0.10;;;27.00;1.00;;;;;;4953782;29;20545;-75
2023/06/15 14:32:22;;;;;;;0.70;0.20;;;27.20;1.00;;;;;;4939047;29;21026;-75
2023/06/15 14:34:50;;;;;;;0.70;0.17;;;27.10;1.00;;;;;;4938914;29;20460;-75
2023/06/15 14:37:18;;;;;;;0.70;0.20;;;27.30;1.00;;;;;;4939780;29;20897;-75
2023/06/15 14:39:50;;;;;;;0.80;0.40;;;27.30;1.00;;;;;;4939350;29;20474;-76
2023/06/15 14:42:20;;;;;;;0.70;0.20;;;27.30;1.00;;;;;;4931582;29;20491;-76
2023/06/15 14:44:48;;;;;;;0.70;0.10;;;;;;;;;;4931095;29;20483;-74
2023/06/15 14:47:17;;;;;;;0.70;0.13;;;27.50;1.00;;;;;;4939028;29;20515;-74
2023/06/15 14:49:45;;;;;;;0.70;0.20;;;27.70;1.00;;;;;;4938974;29;20459;-74
2023/06/15 14:52:13;;;;;;;0.80;0.20;;;;;;;;;;4939008;29;20851;-76
2023/06/15 14:54:41;;;;;;;1.53;0.30;;;27.80;1.00;;;;;;4939116;29;20444;-75
2023/06/15 14:57:11;;;;;;;0.70;0.10;;;27.80;1.00;;;;;;4938815;29;20867;-73
2023/06/15 14:59:40;;;;;;;0.70;0.17;;;27.60;1.00;;;;;;4938466;29;20456;-76
2023/06/15 15:02:08;;;;;;;0.70;0.10;;;27.50;1.00;;;;;;4938792;29;20624;-75
2023/06/15 15:04:35;;;;;;;0.70;0.20;;;27.60;1.00;;;;;;4939144;29;20452;-75
2023/06/15 15:07:04;;;;;;;0.70;0.20;;;27.70;1.00;;;;;;4940010;29;20451;-76
2023/06/15 15:09:32;;;;;;;0.70;0.20;;;27.80;1.00;;;;;;4940487;29;20534;-75
2023/06/15 15:12:00;;;;;;;0.70;0.20;;;27.90;1.00;;;;;;4954517;28;20503;-74
2023/06/15 15:14:29;;;;;;;2.67;1.60;;;27.80;1.00;;;;;;4938565;29;20448;-74
2023/06/15 15:16:57;;;;;;;0.70;0.20;;;27.80;1.00;;;;;;4938555;29;20459;-74
2023/06/15 15:19:25;;;;;;;0.70;0.17;;;27.80;1.00;;;;;;4938634;29;20527;-76
2023/06/15 15:21:53;;;;;;;0.70;0.20;;;27.90;1.00;;;;;;4937435;29;20496;-74
2023/06/15 15:24:21;;;;;;;0.70;0.20;;;28.20;1.00;;;;;;4936769;29;20574;-74
2023/06/15 15:26:49;;;;;;;0.70;0.10;;;28.20;1.00;;;;;;4936230;29;20547;-74
2023/06/15 15:29:17;;;;;;;0.70;0.30;;;28.40;1.00;;;;;;4937701;29;20539;-74
2023/06/15 15:31:46;;;;;;;2.33;2.20;;;28.50;1.00;;;;;;4936795;29;20496;-73
2023/06/15 15:34:14;;;;;;;0.70;0.30;;;28.50;1.00;;;;;;4937318;29;20457;-75
2023/06/15 15:36:42;;;;;;;0.70;0.20;;;28.60;1.00;;;;;;4937054;29;20455;-73
2023/06/15 15:39:10;;;;;;;3.67;3.13;;;28.50;1.00;;;;;;4944394;29;20447;-73
2023/06/15 15:41:38;;;;;;;0.80;0.40;;;28.50;1.00;;;;;;4948427;29;20492;-74
2023/06/15 15:44:06;;;;;;;0.70;0.27;;;28.50;1.00;;;;;;4942416;29;20978;-73
2023/06/15 15:46:34;;;;;;;1.07;0.60;;;28.30;1.00;;;;;;4936766;29;20884;-72
2023/06/15 15:49:03;;;;;;;1.00;0.73;;;28.10;1.00;;;;;;4936493;29;20800;-73
2023/06/15 15:51:31;;;;;;;0.70;0.10;;;27.90;1.00;;;;;;4937504;29;20554;-74
2023/06/15 15:53:59;;;;;;;0.70;0.10;;;27.80;1.00;;;;;;4936518;29;20973;-74
2023/06/15 15:56:27;;;;;;;0.70;0.20;;;27.60;1.00;;;;;;4937423;29;20463;-74
2023/06/15 15:58:55;;;;;;;0.70;0.10;;;;;;;;;;4936843;29;20476;-74
2023/06/15 16:01:27;;;;;;;0.70;0.10;;;27.70;1.00;;;;;;4944679;28;20594;-74
2023/06/15 16:03:55;;;;;;;0.70;0.10;;;27.60;1.00;;;;;;4956204;29;20443;-76
2023/06/15 16:06:26;;;;;;;1.00;0.90;;;27.50;1.00;;;;;;4956833;29;20497;-75
2023/06/15 16:08:54;;;;;;;0.80;0.50;;;27.50;1.00;;;;;;4956992;29;20834;-75
2023/06/15 16:11:22;;;;;;;1.27;0.30;;;27.60;1.00;;;;;;4949620;28;20934;-75
2023/06/15 16:13:50;;;;;;;0.70;0.20;;;27.60;1.00;;;;;;4956357;29;20481;-71
2023/06/15 16:16:18;;;;;;;2.03;1.90;;;27.70;1.00;;;;;;4952295;29;20459;-74
2023/06/15 16:18:56;;;;;;;0.93;0.70;;;27.80;1.00;;;;;;4948139;29;20451;-74
2023/06/15 16:21:26;;;;;;;0.70;0.20;;;28.00;1.00;;;;;;4953817;28;20869;-74
2023/06/15 16:23:54;;;;;;;2.57;2.20;;;28.10;1.00;;;;;;4938030;29;20479;-73
2023/06/15 16:26:22;;;;;;;0.70;0.23;;;28.10;1.00;;;;;;4942238;29;20471;-73
2023/06/15 16:28:50;;;;;;;1.43;0.47;;;28.00;1.00;;;;;;4947729;29;20474;-77
2023/06/15 16:31:18;;;;;;;0.70;0.20;;;28.00;1.00;;;;;;4939211;29;20503;-75
2023/06/15 16:33:46;;;;;;;0.70;0.13;;;28.00;1.00;;;;;;4936507;29;20499;-73
2023/06/15 16:36:16;;;;;;;0.70;0.10;;;28.10;1.00;;;;;;4933333;29;20966;-74
2023/06/15 16:38:46;;;;;;;1.20;0.40;;;;;;;;;;4936496;29;20454;-75
2023/06/15 16:41:15;;;;;;;1.00;0.40;;;28.20;1.00;;;;;;4936984;29;20902;-74
2023/06/15 16:43:43;;;;;;;0.70;0.20;;;28.30;1.00;;;;;;4938826;29;20499;-72
2023/06/15 16:46:11;;;;;;;0.70;0.10;;;28.30;1.00;;;;;;4948837;29;20896;-72
2023/06/15 16:48:39;;;;;;;1.00;0.90;;;28.30;1.00;;;;;;4937316;29;20794;-72
2023/06/15 16:51:07;;;;;;;0.80;0.43;;;28.30;1.00;;;;;;4935554;29;20554;-72
2023/06/15 16:53:35;;;;;;;1.20;0.70;;;28.30;1.00;;;;;;4935374;29;20475;-72
2023/06/15 16:56:04;;;;;;;0.70;0.20;;;28.30;1.00;;;;;;4935876;29;20492;-73
2023/06/15 16:58:32;;;;;;;0.70;0.20;;;28.30;1.00;;;;;;4942240;29;20926;-72
2023/06/15 17:01:00;;;;;;;0.70;0.20;;;28.40;1.00;;;;;;4936729;28;20475;-72
2023/06/15 17:03:29;;;;;;;0.70;0.20;;;28.40;1.00;;;;;;4933773;29;20501;-73
2023/06/15 17:05:59;;;;;;;2.20;0.63;;;28.50;1.00;;;;;;4939922;29;20499;-74
2023/06/15 17:08:27;;;;;;;0.70;0.20;;;28.50;1.00;;;;;;4950543;29;20552;-72
2023/06/15 17:10:55;;;;;;;0.70;0.20;;;28.50;1.00;;;;;;4941650;28;20464;-73
2023/06/15 17:13:24;;;;;;;1.23;1.13;;;28.60;1.00;;;;;;4936633;29;20542;-73
2023/06/15 17:15:52;;;;;;;0.70;0.20;;;28.70;1.00;;;;;;4936810;29;20445;-73
2023/06/15 17:18:20;;;;;;;0.70;0.20;;;28.90;1.00;;;;;;4935131;29;20455;-74
2023/06/15 17:20:48;;;;;;;0.83;0.20;;;28.90;1.00;;;;;;4933630;29;20525;-73
2023/06/15 17:23:16;;;;;;;1.60;1.17;;;28.90;1.00;;;;;;4934311;29;20568;-74